sensor_id;sensor_type;location;lat;lon;timestamp;P1;durP1;ratioP1;P2;durP2;ratioP2
11986;SDS011;6053;51.382;6.768;2022-09-20T00:01:29;3.15;;;2.95;;
11986;SDS011;6053;51.382;6.768;2022-09-20T00:04:01;3.37;;;2.97;;
11986;SDS011;6053;51.382;6.768;2022-09-20T00:06:33;2.97;;;2.78;;
11986;SDS011;6053;51.382;6.768;2022-09-20T00:09:02;2.83;;;2.63;;
11986;SDS011;6053;51.382;6.768;2022-09-20T00:11:32;3.03;;;2.92;;
11986;SDS011;6053;51.382;6.768;2022-09-20T00:14:05;3.20;;;2.92;;
11986;SDS011;6053;51.382;6.768;2022-09-20T00:16:35;2.97;;;2.77;;
11986;SDS011;6053;51.382;6.768;2022-09-20T00:19:06;3.33;;;2.45;;
11986;SDS011;6053;51.382;6.768;2022-09-20T00:21:36;3.83;;;3.25;;
11986;SDS011;6053;51.382;6.768;2022-09-20T00:24:05;2.60;;;2.45;;
11986;SDS011;6053;51.382;6.768;2022-09-20T00:26:33;3.07;;;2.87;;
11986;SDS011;6053;51.382;6.768;2022-09-20T00:29:01;2.10;;;2.00;;
11986;SDS011;6053;51.382;6.768;2022-09-20T00:31:31;2.28;;;2.17;;
11986;SDS011;6053;51.382;6.768;2022-09-20T00:34:01;3.63;;;3.10;;
11986;SDS011;6053;51.382;6.768;2022-09-20T00:36:47;3.38;;;2.58;;
11986;SDS011;6053;51.382;6.768;2022-09-20T00:39:16;2.70;;;2.57;;
11986;SDS011;6053;51.382;6.768;2022-09-20T00:41:44;2.53;;;2.42;;
11986;SDS011;6053;51.382;6.768;2022-09-20T00:47:30;3.07;;;2.87;;
11986;SDS011;6053;51.382;6.768;2022-09-20T00:50:06;2.90;;;2.20;;
11986;SDS011;6053;51.382;6.768;2022-09-20T00:52:51;2.25;;;2.22;;
11986;SDS011;6053;51.382;6.768;2022-09-20T00:55:24;3.10;;;2.90;;
11986;SDS011;6053;51.382;6.768;2022-09-20T00:57:54;2.22;;;2.10;;
11986;SDS011;6053;51.382;6.768;2022-09-20T01:00:23;2.27;;;2.17;;
11986;SDS011;6053;51.382;6.768;2022-09-20T01:02:54;3.15;;;2.17;;
11986;SDS011;6053;51.382;6.768;2022-09-20T01:05:27;3.70;;;2.70;;
11986;SDS011;6053;51.382;6.768;2022-09-20T01:07:57;2.47;;;2.38;;
11986;SDS011;6053;51.382;6.768;2022-09-20T01:10:25;3.25;;;2.97;;
11986;SDS011;6053;51.382;6.768;2022-09-20T01:12:54;2.92;;;2.78;;
11986;SDS011;6053;51.382;6.768;2022-09-20T01:15:23;2.55;;;2.45;;
11986;SDS011;6053;51.382;6.768;2022-09-20T01:17:53;2.72;;;2.63;;
11986;SDS011;6053;51.382;6.768;2022-09-20T01:20:24;2.80;;;2.60;;
11986;SDS011;6053;51.382;6.768;2022-09-20T01:29:08;3.17;;;2.97;;
11986;SDS011;6053;51.382;6.768;2022-09-20T01:31:51;2.53;;;2.43;;
11986;SDS011;6053;51.382;6.768;2022-09-20T01:34:24;2.77;;;2.67;;
11986;SDS011;6053;51.382;6.768;2022-09-20T01:37:01;2.72;;;2.63;;
11986;SDS011;6053;51.382;6.768;2022-09-20T01:39:41;2.77;;;2.67;;
11986;SDS011;6053;51.382;6.768;2022-09-20T01:42:21;3.53;;;3.22;;
11986;SDS011;6053;51.382;6.768;2022-09-20T01:44:59;2.60;;;2.50;;
11986;SDS011;6053;51.382;6.768;2022-09-20T01:47:34;2.13;;;2.13;;
11986;SDS011;6053;51.382;6.768;2022-09-20T01:50:13;2.80;;;2.70;;
11986;SDS011;6053;51.382;6.768;2022-09-20T01:53:00;2.22;;;2.20;;
11986;SDS011;6053;51.382;6.768;2022-09-20T02:02:37;2.83;;;2.72;;
11986;SDS011;6053;51.382;6.768;2022-09-20T02:05:33;2.65;;;2.55;;
11986;SDS011;6053;51.382;6.768;2022-09-20T02:08:48;2.03;;;2.03;;
11986;SDS011;6053;51.382;6.768;2022-09-20T02:12:17;2.75;;;2.65;;
11986;SDS011;6053;51.382;6.768;2022-09-20T02:15:14;3.60;;;2.90;;
11986;SDS011;6053;51.382;6.768;2022-09-20T02:17:57;2.53;;;2.42;;
11986;SDS011;6053;51.382;6.768;2022-09-20T02:20:38;2.53;;;2.42;;
11986;SDS011;6053;51.382;6.768;2022-09-20T02:23:20;2.38;;;2.28;;
11986;SDS011;6053;51.382;6.768;2022-09-20T02:29:01;4.57;;;3.38;;
11986;SDS011;6053;51.382;6.768;2022-09-20T02:37:54;2.17;;;2.17;;
11986;SDS011;6053;51.382;6.768;2022-09-20T02:40:38;2.15;;;2.05;;
11986;SDS011;6053;51.382;6.768;2022-09-20T02:43:50;3.05;;;2.72;;
11986;SDS011;6053;51.382;6.768;2022-09-20T02:46:29;3.10;;;2.90;;
11986;SDS011;6053;51.382;6.768;2022-09-20T02:49:05;2.70;;;2.50;;
11986;SDS011;6053;51.382;6.768;2022-09-20T02:51:42;5.97;;;3.25;;
11986;SDS011;6053;51.382;6.768;2022-09-20T02:54:20;2.10;;;2.00;;
11986;SDS011;6053;51.382;6.768;2022-09-20T02:57:02;2.38;;;2.35;;
11986;SDS011;6053;51.382;6.768;2022-09-20T02:59:41;2.90;;;2.70;;
11986;SDS011;6053;51.382;6.768;2022-09-20T03:02:17;2.67;;;2.47;;
11986;SDS011;6053;51.382;6.768;2022-09-20T03:04:59;2.43;;;2.33;;
11986;SDS011;6053;51.382;6.768;2022-09-20T03:07:42;3.15;;;2.85;;
11986;SDS011;6053;51.382;6.768;2022-09-20T03:10:24;2.33;;;2.22;;
11986;SDS011;6053;51.382;6.768;2022-09-20T03:13:05;2.57;;;2.40;;
11986;SDS011;6053;51.382;6.768;2022-09-20T03:15:47;2.25;;;2.25;;
11986;SDS011;6053;51.382;6.768;2022-09-20T03:18:32;3.63;;;2.90;;
11986;SDS011;6053;51.382;6.768;2022-09-20T03:21:11;2.70;;;2.50;;
11986;SDS011;6053;51.382;6.768;2022-09-20T03:23:59;2.33;;;2.23;;
11986;SDS011;6053;51.382;6.768;2022-09-20T03:26:38;2.70;;;2.60;;
11986;SDS011;6053;51.382;6.768;2022-09-20T03:29:20;4.00;;;2.33;;
11986;SDS011;6053;51.382;6.768;2022-09-20T03:32:06;2.47;;;2.37;;
11986;SDS011;6053;51.382;6.768;2022-09-20T03:34:56;2.60;;;2.50;;
11986;SDS011;6053;51.382;6.768;2022-09-20T03:37:43;2.80;;;2.67;;
11986;SDS011;6053;51.382;6.768;2022-09-20T03:40:31;2.50;;;2.40;;
11986;SDS011;6053;51.382;6.768;2022-09-20T03:43:34;3.10;;;2.90;;
11986;SDS011;6053;51.382;6.768;2022-09-20T03:46:21;2.78;;;2.65;;
11986;SDS011;6053;51.382;6.768;2022-09-20T03:48:58;2.70;;;2.55;;
11986;SDS011;6053;51.382;6.768;2022-09-20T03:52:09;3.13;;;2.92;;
11986;SDS011;6053;51.382;6.768;2022-09-20T03:58:39;2.30;;;2.30;;
11986;SDS011;6053;51.382;6.768;2022-09-20T04:01:32;2.75;;;2.60;;
11986;SDS011;6053;51.382;6.768;2022-09-20T04:04:21;2.30;;;2.30;;
11986;SDS011;6053;51.382;6.768;2022-09-20T04:07:01;2.92;;;2.83;;
11986;SDS011;6053;51.382;6.768;2022-09-20T04:09:45;2.60;;;2.50;;
11986;SDS011;6053;51.382;6.768;2022-09-20T04:12:34;2.78;;;2.67;;
11986;SDS011;6053;51.382;6.768;2022-09-20T04:15:21;3.13;;;3.00;;
11986;SDS011;6053;51.382;6.768;2022-09-20T04:18:00;2.50;;;2.40;;
11986;SDS011;6053;51.382;6.768;2022-09-20T04:20:39;2.67;;;2.57;;
11986;SDS011;6053;51.382;6.768;2022-09-20T04:23:17;2.33;;;2.22;;
11986;SDS011;6053;51.382;6.768;2022-09-20T04:26:01;2.47;;;2.47;;
11986;SDS011;6053;51.382;6.768;2022-09-20T04:28:33;2.38;;;2.28;;
11986;SDS011;6053;51.382;6.768;2022-09-20T04:31:11;2.50;;;2.40;;
11986;SDS011;6053;51.382;6.768;2022-09-20T04:33:53;2.53;;;2.42;;
11986;SDS011;6053;51.382;6.768;2022-09-20T04:36:35;2.43;;;2.33;;
11986;SDS011;6053;51.382;6.768;2022-09-20T04:39:24;2.47;;;2.40;;
11986;SDS011;6053;51.382;6.768;2022-09-20T04:42:32;2.20;;;2.10;;
11986;SDS011;6053;51.382;6.768;2022-09-20T04:48:53;3.10;;;3.00;;
11986;SDS011;6053;51.382;6.768;2022-09-20T04:52:31;2.53;;;2.43;;
11986;SDS011;6053;51.382;6.768;2022-09-20T04:55:48;3.35;;;3.15;;
11986;SDS011;6053;51.382;6.768;2022-09-20T05:05:12;2.80;;;2.70;;
11986;SDS011;6053;51.382;6.768;2022-09-20T05:11:28;3.40;;;3.10;;
11986;SDS011;6053;51.382;6.768;2022-09-20T05:15:07;3.95;;;3.65;;
11986;SDS011;6053;51.382;6.768;2022-09-20T05:17:55;2.65;;;2.55;;
11986;SDS011;6053;51.382;6.768;2022-09-20T05:21:08;3.35;;;3.08;;
11986;SDS011;6053;51.382;6.768;2022-09-20T05:24:01;2.88;;;2.67;;
11986;SDS011;6053;51.382;6.768;2022-09-20T05:26:53;2.90;;;2.80;;
11986;SDS011;6053;51.382;6.768;2022-09-20T05:29:37;4.15;;;3.30;;
11986;SDS011;6053;51.382;6.768;2022-09-20T05:32:17;3.43;;;2.67;;
11986;SDS011;6053;51.382;6.768;2022-09-20T05:34:55;2.25;;;2.15;;
11986;SDS011;6053;51.382;6.768;2022-09-20T05:37:34;3.53;;;2.97;;
11986;SDS011;6053;51.382;6.768;2022-09-20T05:40:14;2.50;;;2.40;;
11986;SDS011;6053;51.382;6.768;2022-09-20T05:42:55;2.53;;;2.42;;
11986;SDS011;6053;51.382;6.768;2022-09-20T05:45:45;2.15;;;2.05;;
11986;SDS011;6053;51.382;6.768;2022-09-20T05:48:23;2.72;;;2.63;;
11986;SDS011;6053;51.382;6.768;2022-09-20T05:51:07;2.90;;;2.60;;
11986;SDS011;6053;51.382;6.768;2022-09-20T05:53:55;2.88;;;2.63;;
11986;SDS011;6053;51.382;6.768;2022-09-20T05:56:52;2.90;;;2.70;;
11986;SDS011;6053;51.382;6.768;2022-09-20T05:59:33;4.00;;;3.10;;
11986;SDS011;6053;51.382;6.768;2022-09-20T06:02:23;2.50;;;2.40;;
11986;SDS011;6053;51.382;6.768;2022-09-20T06:05:10;2.97;;;2.50;;
11986;SDS011;6053;51.382;6.768;2022-09-20T06:07:51;3.20;;;2.97;;
11986;SDS011;6053;51.382;6.768;2022-09-20T06:10:53;2.65;;;2.45;;
11986;SDS011;6053;51.382;6.768;2022-09-20T06:13:48;3.17;;;2.90;;
11986;SDS011;6053;51.382;6.768;2022-09-20T06:16:34;2.60;;;2.50;;
11986;SDS011;6053;51.382;6.768;2022-09-20T06:19:13;3.13;;;2.92;;
11986;SDS011;6053;51.382;6.768;2022-09-20T06:21:50;3.30;;;3.00;;
11986;SDS011;6053;51.382;6.768;2022-09-20T06:24:28;2.33;;;2.22;;
11986;SDS011;6053;51.382;6.768;2022-09-20T06:27:05;2.72;;;2.63;;
11986;SDS011;6053;51.382;6.768;2022-09-20T06:29:40;2.63;;;2.53;;
11986;SDS011;6053;51.382;6.768;2022-09-20T06:32:15;2.55;;;2.45;;
11986;SDS011;6053;51.382;6.768;2022-09-20T06:34:44;2.75;;;2.65;;
11986;SDS011;6053;51.382;6.768;2022-09-20T06:37:20;2.33;;;2.33;;
11986;SDS011;6053;51.382;6.768;2022-09-20T06:40:29;2.67;;;2.58;;
11986;SDS011;6053;51.382;6.768;2022-09-20T06:43:22;2.65;;;2.55;;
11986;SDS011;6053;51.382;6.768;2022-09-20T06:45:51;2.83;;;2.73;;
11986;SDS011;6053;51.382;6.768;2022-09-20T06:48:19;3.15;;;2.90;;
11986;SDS011;6053;51.382;6.768;2022-09-20T06:50:47;2.70;;;2.50;;
11986;SDS011;6053;51.382;6.768;2022-09-20T06:53:18;3.20;;;2.83;;
11986;SDS011;6053;51.382;6.768;2022-09-20T06:55:54;2.85;;;2.65;;
11986;SDS011;6053;51.382;6.768;2022-09-20T06:58:23;3.25;;;2.95;;
11986;SDS011;6053;51.382;6.768;2022-09-20T07:00:52;3.10;;;2.90;;
11986;SDS011;6053;51.382;6.768;2022-09-20T07:03:20;2.37;;;2.30;;
11986;SDS011;6053;51.382;6.768;2022-09-20T07:05:49;3.67;;;3.38;;
11986;SDS011;6053;51.382;6.768;2022-09-20T07:08:18;2.38;;;2.17;;
11986;SDS011;6053;51.382;6.768;2022-09-20T07:10:46;3.90;;;3.05;;
11986;SDS011;6053;51.382;6.768;2022-09-20T07:13:17;5.22;;;3.05;;
11986;SDS011;6053;51.382;6.768;2022-09-20T07:15:46;2.65;;;2.45;;
11986;SDS011;6053;51.382;6.768;2022-09-20T07:18:14;2.50;;;2.40;;
11986;SDS011;6053;51.382;6.768;2022-09-20T07:20:42;3.83;;;3.42;;
11986;SDS011;6053;51.382;6.768;2022-09-20T07:23:10;3.22;;;3.03;;
11986;SDS011;6053;51.382;6.768;2022-09-20T07:25:40;2.73;;;2.57;;
11986;SDS011;6053;51.382;6.768;2022-09-20T07:28:08;2.35;;;2.25;;
11986;SDS011;6053;51.382;6.768;2022-09-20T07:30:38;3.67;;;3.25;;
11986;SDS011;6053;51.382;6.768;2022-09-20T07:33:06;4.20;;;3.55;;
11986;SDS011;6053;51.382;6.768;2022-09-20T07:35:35;4.43;;;3.67;;
11986;SDS011;6053;51.382;6.768;2022-09-20T07:38:03;3.87;;;3.50;;
11986;SDS011;6053;51.382;6.768;2022-09-20T07:40:32;3.15;;;2.85;;
11986;SDS011;6053;51.382;6.768;2022-09-20T07:43:00;3.45;;;3.15;;
11986;SDS011;6053;51.382;6.768;2022-09-20T07:45:28;4.63;;;3.73;;
11986;SDS011;6053;51.382;6.768;2022-09-20T07:47:58;3.08;;;2.70;;
11986;SDS011;6053;51.382;6.768;2022-09-20T07:50:30;3.10;;;2.90;;
11986;SDS011;6053;51.382;6.768;2022-09-20T07:52:59;2.33;;;2.17;;
11986;SDS011;6053;51.382;6.768;2022-09-20T07:55:28;4.25;;;2.78;;
11986;SDS011;6053;51.382;6.768;2022-09-20T07:57:56;2.70;;;2.60;;
11986;SDS011;6053;51.382;6.768;2022-09-20T08:00:24;3.40;;;3.13;;
11986;SDS011;6053;51.382;6.768;2022-09-20T08:02:56;3.33;;;3.15;;
11986;SDS011;6053;51.382;6.768;2022-09-20T08:05:26;3.92;;;2.90;;
11986;SDS011;6053;51.382;6.768;2022-09-20T08:07:54;2.75;;;2.42;;
11986;SDS011;6053;51.382;6.768;2022-09-20T08:10:24;2.72;;;2.53;;
11986;SDS011;6053;51.382;6.768;2022-09-20T08:12:52;2.57;;;2.37;;
11986;SDS011;6053;51.382;6.768;2022-09-20T08:15:41;5.57;;;2.78;;
11986;SDS011;6053;51.382;6.768;2022-09-20T08:18:11;2.95;;;2.75;;
11986;SDS011;6053;51.382;6.768;2022-09-20T08:20:40;3.22;;;2.92;;
11986;SDS011;6053;51.382;6.768;2022-09-20T08:23:08;6.63;;;3.03;;
11986;SDS011;6053;51.382;6.768;2022-09-20T08:25:49;3.20;;;2.90;;
11986;SDS011;6053;51.382;6.768;2022-09-20T08:28:17;3.13;;;2.40;;
11986;SDS011;6053;51.382;6.768;2022-09-20T08:30:45;2.50;;;2.40;;
11986;SDS011;6053;51.382;6.768;2022-09-20T08:33:15;3.08;;;2.47;;
11986;SDS011;6053;51.382;6.768;2022-09-20T08:35:47;2.60;;;2.10;;
11986;SDS011;6053;51.382;6.768;2022-09-20T08:38:15;3.35;;;3.03;;
11986;SDS011;6053;51.382;6.768;2022-09-20T08:41:14;3.00;;;2.80;;
11986;SDS011;6053;51.382;6.768;2022-09-20T08:43:47;3.20;;;2.97;;
11986;SDS011;6053;51.382;6.768;2022-09-20T08:46:21;2.17;;;2.13;;
11986;SDS011;6053;51.382;6.768;2022-09-20T08:48:55;3.05;;;2.60;;
11986;SDS011;6053;51.382;6.768;2022-09-20T08:51:25;2.70;;;2.50;;
11986;SDS011;6053;51.382;6.768;2022-09-20T08:53:56;3.00;;;2.70;;
11986;SDS011;6053;51.382;6.768;2022-09-20T08:56:26;2.30;;;2.20;;
11986;SDS011;6053;51.382;6.768;2022-09-20T08:58:58;3.03;;;2.80;;
11986;SDS011;6053;51.382;6.768;2022-09-20T09:01:27;3.70;;;2.67;;
11986;SDS011;6053;51.382;6.768;2022-09-20T09:04:01;3.15;;;2.10;;
11986;SDS011;6053;51.382;6.768;2022-09-20T09:06:38;3.08;;;2.22;;
11986;SDS011;6053;51.382;6.768;2022-09-20T09:09:08;3.22;;;2.92;;
11986;SDS011;6053;51.382;6.768;2022-09-20T09:11:44;3.70;;;2.50;;
11986;SDS011;6053;51.382;6.768;2022-09-20T09:14:16;3.17;;;2.53;;
11986;SDS011;6053;51.382;6.768;2022-09-20T09:17:11;2.40;;;2.20;;
11986;SDS011;6053;51.382;6.768;2022-09-20T09:19:44;3.22;;;2.70;;
11986;SDS011;6053;51.382;6.768;2022-09-20T09:22:20;2.60;;;2.40;;
11986;SDS011;6053;51.382;6.768;2022-09-20T09:25:05;2.45;;;2.25;;
11986;SDS011;6053;51.382;6.768;2022-09-20T09:27:48;2.42;;;2.20;;
11986;SDS011;6053;51.382;6.768;2022-09-20T09:30:19;2.10;;;2.00;;
11986;SDS011;6053;51.382;6.768;2022-09-20T09:32:51;4.10;;;2.78;;
11986;SDS011;6053;51.382;6.768;2022-09-20T09:35:43;2.43;;;2.30;;
11986;SDS011;6053;51.382;6.768;2022-09-20T09:38:19;2.45;;;2.25;;
11986;SDS011;6053;51.382;6.768;2022-09-20T09:40:50;3.42;;;1.98;;
11986;SDS011;6053;51.382;6.768;2022-09-20T09:43:21;2.33;;;2.13;;
11986;SDS011;6053;51.382;6.768;2022-09-20T09:45:55;2.80;;;2.50;;
11986;SDS011;6053;51.382;6.768;2022-09-20T09:48:42;2.37;;;2.00;;
11986;SDS011;6053;51.382;6.768;2022-09-20T09:51:16;2.58;;;2.38;;
11986;SDS011;6053;51.382;6.768;2022-09-20T09:53:48;2.43;;;2.17;;
11986;SDS011;6053;51.382;6.768;2022-09-20T09:56:25;2.17;;;2.08;;
11986;SDS011;6053;51.382;6.768;2022-09-20T09:59:12;2.77;;;2.30;;
11986;SDS011;6053;51.382;6.768;2022-09-20T10:02:20;2.40;;;2.30;;
11986;SDS011;6053;51.382;6.768;2022-09-20T10:05:08;2.72;;;2.53;;
11986;SDS011;6053;51.382;6.768;2022-09-20T10:07:45;2.83;;;2.58;;
11986;SDS011;6053;51.382;6.768;2022-09-20T10:10:24;2.70;;;2.50;;
11986;SDS011;6053;51.382;6.768;2022-09-20T10:13:05;2.47;;;2.30;;
11986;SDS011;6053;51.382;6.768;2022-09-20T10:15:43;2.77;;;2.47;;
11986;SDS011;6053;51.382;6.768;2022-09-20T10:18:30;2.72;;;2.53;;
11986;SDS011;6053;51.382;6.768;2022-09-20T10:21:11;2.22;;;2.13;;
11986;SDS011;6053;51.382;6.768;2022-09-20T10:24:03;2.50;;;2.28;;
11986;SDS011;6053;51.382;6.768;2022-09-20T10:26:59;3.95;;;2.75;;
11986;SDS011;6053;51.382;6.768;2022-09-20T10:29:53;1.90;;;1.90;;
11986;SDS011;6053;51.382;6.768;2022-09-20T10:32:45;2.55;;;2.35;;
11986;SDS011;6053;51.382;6.768;2022-09-20T10:35:31;2.47;;;2.28;;
11986;SDS011;6053;51.382;6.768;2022-09-20T10:38:19;3.05;;;2.85;;
11986;SDS011;6053;51.382;6.768;2022-09-20T10:41:02;2.13;;;2.03;;
11986;SDS011;6053;51.382;6.768;2022-09-20T10:44:08;4.32;;;2.92;;
11986;SDS011;6053;51.382;6.768;2022-09-20T10:46:51;2.40;;;2.20;;
11986;SDS011;6053;51.382;6.768;2022-09-20T10:49:32;3.00;;;2.50;;
11986;SDS011;6053;51.382;6.768;2022-09-20T10:52:14;2.33;;;2.22;;
11986;SDS011;6053;51.382;6.768;2022-09-20T10:55:12;2.13;;;2.03;;
11986;SDS011;6053;51.382;6.768;2022-09-20T10:58:07;2.75;;;2.47;;
11986;SDS011;6053;51.382;6.768;2022-09-20T11:01:05;2.42;;;2.20;;
11986;SDS011;6053;51.382;6.768;2022-09-20T11:03:48;2.20;;;2.10;;
11986;SDS011;6053;51.382;6.768;2022-09-20T11:06:38;2.10;;;2.00;;
11986;SDS011;6053;51.382;6.768;2022-09-20T11:09:18;2.05;;;1.95;;
11986;SDS011;6053;51.382;6.768;2022-09-20T11:11:51;2.67;;;2.47;;
11986;SDS011;6053;51.382;6.768;2022-09-20T11:14:29;2.20;;;2.08;;
11986;SDS011;6053;51.382;6.768;2022-09-20T11:17:05;2.10;;;2.00;;
11986;SDS011;6053;51.382;6.768;2022-09-20T11:19:45;2.40;;;2.03;;
11986;SDS011;6053;51.382;6.768;2022-09-20T11:22:23;2.30;;;2.20;;
11986;SDS011;6053;51.382;6.768;2022-09-20T11:25:00;3.03;;;2.30;;
11986;SDS011;6053;51.382;6.768;2022-09-20T11:27:43;2.23;;;2.03;;
11986;SDS011;6053;51.382;6.768;2022-09-20T11:30:19;2.37;;;2.10;;
11986;SDS011;6053;51.382;6.768;2022-09-20T11:32:50;3.10;;;2.20;;
11986;SDS011;6053;51.382;6.768;2022-09-20T11:35:27;2.20;;;2.15;;
11986;SDS011;6053;51.382;6.768;2022-09-20T11:38:02;2.50;;;2.30;;
11986;SDS011;6053;51.382;6.768;2022-09-20T11:40:37;1.60;;;1.60;;
11986;SDS011;6053;51.382;6.768;2022-09-20T11:43:12;2.23;;;2.13;;
11986;SDS011;6053;51.382;6.768;2022-09-20T11:45:44;2.25;;;2.10;;
11986;SDS011;6053;51.382;6.768;2022-09-20T11:48:20;1.80;;;1.70;;
11986;SDS011;6053;51.382;6.768;2022-09-20T11:54:06;1.95;;;1.85;;
11986;SDS011;6053;51.382;6.768;2022-09-20T11:57:01;2.60;;;2.20;;
11986;SDS011;6053;51.382;6.768;2022-09-20T11:59:32;1.77;;;1.77;;
11986;SDS011;6053;51.382;6.768;2022-09-20T12:02:12;2.33;;;2.10;;
11986;SDS011;6053;51.382;6.768;2022-09-20T12:04:49;1.75;;;1.70;;
11986;SDS011;6053;51.382;6.768;2022-09-20T12:07:19;1.70;;;1.70;;
11986;SDS011;6053;51.382;6.768;2022-09-20T12:09:53;1.95;;;1.83;;
11986;SDS011;6053;51.382;6.768;2022-09-20T12:12:30;1.90;;;1.85;;
11986;SDS011;6053;51.382;6.768;2022-09-20T12:15:07;2.25;;;2.05;;
11986;SDS011;6053;51.382;6.768;2022-09-20T12:18:06;2.40;;;2.30;;
11986;SDS011;6053;51.382;6.768;2022-09-20T12:21:03;2.03;;;2.00;;
11986;SDS011;6053;51.382;6.768;2022-09-20T12:26:48;1.83;;;1.83;;
11986;SDS011;6053;51.382;6.768;2022-09-20T12:38:46;2.17;;;1.95;;
11986;SDS011;6053;51.382;6.768;2022-09-20T12:41:25;2.30;;;2.10;;
11986;SDS011;6053;51.382;6.768;2022-09-20T12:43:58;1.98;;;1.83;;
11986;SDS011;6053;51.382;6.768;2022-09-20T12:46:49;2.00;;;1.90;;
11986;SDS011;6053;51.382;6.768;2022-09-20T12:49:29;1.95;;;1.85;;
11986;SDS011;6053;51.382;6.768;2022-09-20T12:52:37;1.63;;;1.52;;
11986;SDS011;6053;51.382;6.768;2022-09-20T12:55:26;1.57;;;1.57;;
11986;SDS011;6053;51.382;6.768;2022-09-20T12:58:22;1.85;;;1.80;;
11986;SDS011;6053;51.382;6.768;2022-09-20T13:01:31;2.03;;;1.98;;
11986;SDS011;6053;51.382;6.768;2022-09-20T13:07:32;2.77;;;2.07;;
11986;SDS011;6053;51.382;6.768;2022-09-20T13:13:13;2.30;;;2.20;;
11986;SDS011;6053;51.382;6.768;2022-09-20T13:15:59;1.80;;;1.70;;
11986;SDS011;6053;51.382;6.768;2022-09-20T13:18:32;1.60;;;1.60;;
11986;SDS011;6053;51.382;6.768;2022-09-20T13:21:03;1.98;;;1.88;;
11986;SDS011;6053;51.382;6.768;2022-09-20T13:23:40;1.70;;;1.70;;
11986;SDS011;6053;51.382;6.768;2022-09-20T13:26:14;2.00;;;1.95;;
11986;SDS011;6053;51.382;6.768;2022-09-20T13:28:50;1.77;;;1.63;;
11986;SDS011;6053;51.382;6.768;2022-09-20T13:31:23;2.00;;;1.88;;
11986;SDS011;6053;51.382;6.768;2022-09-20T13:34:13;1.98;;;1.88;;
11986;SDS011;6053;51.382;6.768;2022-09-20T13:36:47;1.77;;;1.75;;
11986;SDS011;6053;51.382;6.768;2022-09-20T13:39:26;2.10;;;1.70;;
11986;SDS011;6053;51.382;6.768;2022-09-20T13:42:01;3.13;;;1.90;;
11986;SDS011;6053;51.382;6.768;2022-09-20T13:44:36;1.90;;;1.80;;
11986;SDS011;6053;51.382;6.768;2022-09-20T13:47:19;2.08;;;2.00;;
11986;SDS011;6053;51.382;6.768;2022-09-20T13:49:51;1.67;;;1.58;;
11986;SDS011;6053;51.382;6.768;2022-09-20T13:52:23;1.63;;;1.63;;
11986;SDS011;6053;51.382;6.768;2022-09-20T13:54:55;1.83;;;1.73;;
11986;SDS011;6053;51.382;6.768;2022-09-20T13:57:25;2.00;;;1.90;;
11986;SDS011;6053;51.382;6.768;2022-09-20T13:59:56;1.90;;;1.80;;
11986;SDS011;6053;51.382;6.768;2022-09-20T14:02:28;2.10;;;2.00;;
11986;SDS011;6053;51.382;6.768;2022-09-20T14:04:59;1.83;;;1.63;;
11986;SDS011;6053;51.382;6.768;2022-09-20T14:07:30;1.90;;;1.80;;
11986;SDS011;6053;51.382;6.768;2022-09-20T14:10:03;2.00;;;1.90;;
11986;SDS011;6053;51.382;6.768;2022-09-20T14:12:52;2.05;;;1.95;;
11986;SDS011;6053;51.382;6.768;2022-09-20T14:15:21;2.40;;;2.00;;
11986;SDS011;6053;51.382;6.768;2022-09-20T14:17:51;1.85;;;1.75;;
11986;SDS011;6053;51.382;6.768;2022-09-20T14:20:20;2.22;;;1.65;;
11986;SDS011;6053;51.382;6.768;2022-09-20T14:22:49;2.05;;;1.95;;
11986;SDS011;6053;51.382;6.768;2022-09-20T14:25:26;1.63;;;1.63;;
11986;SDS011;6053;51.382;6.768;2022-09-20T14:28:04;2.08;;;1.98;;
11986;SDS011;6053;51.382;6.768;2022-09-20T14:30:42;1.77;;;1.67;;
11986;SDS011;6053;51.382;6.768;2022-09-20T14:33:14;1.53;;;1.53;;
11986;SDS011;6053;51.382;6.768;2022-09-20T14:35:46;2.85;;;1.95;;
11986;SDS011;6053;51.382;6.768;2022-09-20T14:38:17;2.33;;;1.67;;
11986;SDS011;6053;51.382;6.768;2022-09-20T14:40:52;2.30;;;1.63;;
11986;SDS011;6053;51.382;6.768;2022-09-20T14:43:23;3.80;;;1.50;;
11986;SDS011;6053;51.382;6.768;2022-09-20T14:45:57;1.63;;;1.60;;
11986;SDS011;6053;51.382;6.768;2022-09-20T14:48:34;1.70;;;1.70;;
11986;SDS011;6053;51.382;6.768;2022-09-20T14:51:10;1.90;;;1.80;;
11986;SDS011;6053;51.382;6.768;2022-09-20T14:53:51;1.80;;;1.70;;
11986;SDS011;6053;51.382;6.768;2022-09-20T14:56:53;1.90;;;1.80;;
11986;SDS011;6053;51.382;6.768;2022-09-20T14:59:23;1.90;;;1.80;;
11986;SDS011;6053;51.382;6.768;2022-09-20T15:01:54;1.55;;;1.48;;
11986;SDS011;6053;51.382;6.768;2022-09-20T15:04:30;1.70;;;1.50;;
11986;SDS011;6053;51.382;6.768;2022-09-20T15:07:03;1.55;;;1.50;;
11986;SDS011;6053;51.382;6.768;2022-09-20T15:09:33;2.08;;;1.75;;
11986;SDS011;6053;51.382;6.768;2022-09-20T15:12:04;1.40;;;1.30;;
11986;SDS011;6053;51.382;6.768;2022-09-20T15:14:37;1.70;;;1.60;;
11986;SDS011;6053;51.382;6.768;2022-09-20T15:17:08;2.10;;;1.92;;
11986;SDS011;6053;51.382;6.768;2022-09-20T15:19:40;2.20;;;2.10;;
11986;SDS011;6053;51.382;6.768;2022-09-20T15:22:08;1.70;;;1.67;;
11986;SDS011;6053;51.382;6.768;2022-09-20T15:24:37;1.85;;;1.75;;
11986;SDS011;6053;51.382;6.768;2022-09-20T15:27:09;2.10;;;2.00;;
11986;SDS011;6053;51.382;6.768;2022-09-20T15:29:38;2.28;;;1.70;;
11986;SDS011;6053;51.382;6.768;2022-09-20T15:32:07;2.05;;;1.52;;
11986;SDS011;6053;51.382;6.768;2022-09-20T15:34:37;1.75;;;1.65;;
11986;SDS011;6053;51.382;6.768;2022-09-20T15:37:05;1.90;;;1.80;;
11986;SDS011;6053;51.382;6.768;2022-09-20T15:39:34;1.73;;;1.63;;
11986;SDS011;6053;51.382;6.768;2022-09-20T15:42:02;3.77;;;2.17;;
11986;SDS011;6053;51.382;6.768;2022-09-20T15:44:33;2.20;;;1.92;;
11986;SDS011;6053;51.382;6.768;2022-09-20T15:47:01;2.20;;;2.00;;
11986;SDS011;6053;51.382;6.768;2022-09-20T15:49:31;2.33;;;2.22;;
11986;SDS011;6053;51.382;6.768;2022-09-20T15:52:00;2.08;;;1.90;;
11986;SDS011;6053;51.382;6.768;2022-09-20T15:54:29;1.83;;;1.83;;
11986;SDS011;6053;51.382;6.768;2022-09-20T15:56:57;1.77;;;1.77;;
11986;SDS011;6053;51.382;6.768;2022-09-20T15:59:25;1.60;;;1.60;;
11986;SDS011;6053;51.382;6.768;2022-09-20T16:01:55;1.73;;;1.63;;
11986;SDS011;6053;51.382;6.768;2022-09-20T16:04:24;1.77;;;1.70;;
11986;SDS011;6053;51.382;6.768;2022-09-20T16:06:53;2.50;;;1.85;;
11986;SDS011;6053;51.382;6.768;2022-09-20T16:09:21;2.60;;;1.80;;
11986;SDS011;6053;51.382;6.768;2022-09-20T16:11:49;2.42;;;1.70;;
11986;SDS011;6053;51.382;6.768;2022-09-20T16:14:23;2.83;;;1.63;;
11986;SDS011;6053;51.382;6.768;2022-09-20T16:16:52;1.88;;;1.70;;
11986;SDS011;6053;51.382;6.768;2022-09-20T16:19:24;1.55;;;1.55;;
11986;SDS011;6053;51.382;6.768;2022-09-20T16:21:52;2.35;;;1.73;;
11986;SDS011;6053;51.382;6.768;2022-09-20T16:24:25;1.83;;;1.77;;
11986;SDS011;6053;51.382;6.768;2022-09-20T16:26:55;1.88;;;1.52;;
11986;SDS011;6053;51.382;6.768;2022-09-20T16:29:24;2.95;;;1.88;;
11986;SDS011;6053;51.382;6.768;2022-09-20T16:31:54;1.73;;;1.63;;
11986;SDS011;6053;51.382;6.768;2022-09-20T16:34:26;1.92;;;1.83;;
11986;SDS011;6053;51.382;6.768;2022-09-20T16:36:57;1.98;;;1.88;;
11986;SDS011;6053;51.382;6.768;2022-09-20T16:39:28;3.05;;;1.60;;
11986;SDS011;6053;51.382;6.768;2022-09-20T16:41:57;2.63;;;1.85;;
11986;SDS011;6053;51.382;6.768;2022-09-20T16:44:28;2.30;;;1.83;;
11986;SDS011;6053;51.382;6.768;2022-09-20T16:46:57;1.70;;;1.70;;
11986;SDS011;6053;51.382;6.768;2022-09-20T16:49:27;2.47;;;1.67;;
11986;SDS011;6053;51.382;6.768;2022-09-20T16:51:56;2.17;;;2.08;;
11986;SDS011;6053;51.382;6.768;2022-09-20T16:54:24;1.83;;;1.73;;
11986;SDS011;6053;51.382;6.768;2022-09-20T16:56:57;2.17;;;2.08;;
11986;SDS011;6053;51.382;6.768;2022-09-20T16:59:25;1.90;;;1.80;;
11986;SDS011;6053;51.382;6.768;2022-09-20T17:01:54;1.50;;;1.48;;
11986;SDS011;6053;51.382;6.768;2022-09-20T17:04:22;2.83;;;2.00;;
11986;SDS011;6053;51.382;6.768;2022-09-20T17:06:52;3.28;;;2.00;;
11986;SDS011;6053;51.382;6.768;2022-09-20T17:09:20;3.45;;;1.98;;
11986;SDS011;6053;51.382;6.768;2022-09-20T17:11:49;1.90;;;1.80;;